sensor_id;sensor_type;location;lat;lon;timestamp;pressure;altitude;pressure_sealevel;temperature;humidity
25560;BME280;13450;49.374;8.584;2024-03-23T00:55:14;99663.59;;;10.79;100.00
25560;BME280;13450;49.374;8.584;2024-03-23T00:57:39;99658.06;;;10.73;100.00
25560;BME280;13450;49.374;8.584;2024-03-23T01:00:05;99656.63;;;10.71;100.00
25560;BME280;13450;49.374;8.584;2024-03-23T01:02:32;99655.97;;;10.69;100.00
25560;BME280;13450;49.374;8.584;2024-03-23T01:04:57;99653.72;;;10.66;100.00
25560;BME280;13450;49.374;8.584;2024-03-23T01:07:23;99646.75;;;10.65;100.00
25560;BME280;13450;49.374;8.584;2024-03-23T01:09:48;99643.44;;;10.63;100.00
25560;BME280;13450;49.374;8.584;2024-03-23T01:12:14;99647.16;;;10.62;100.00
25560;BME280;13450;49.374;8.584;2024-03-23T01:14:39;99643.44;;;10.63;100.00
25560;BME280;13450;49.374;8.584;2024-03-23T01:17:04;99639.72;;;10.64;100.00
25560;BME280;13450;49.374;8.584;2024-03-23T01:19:29;99646.31;;;10.68;100.00
25560;BME280;13450;49.374;8.584;2024-03-23T01:21:55;99644.28;;;10.70;100.00
25560;BME280;13450;49.374;8.584;2024-03-23T01:24:20;99633.97;;;10.73;100.00
25560;BME280;13450;49.374;8.584;2024-03-23T01:26:48;99627.38;;;10.76;100.00
25560;BME280;13450;49.374;8.584;2024-03-23T01:29:13;99618.75;;;10.81;100.00
25560;BME280;13450;49.374;8.584;2024-03-23T01:31:38;99616.28;;;10.86;100.00
25560;BME280;13450;49.374;8.584;2024-03-23T01:34:04;99612.97;;;10.91;100.00
25560;BME280;13450;49.374;8.584;2024-03-23T01:36:31;99619.53;;;10.95;100.00
25560;BME280;13450;49.374;8.584;2024-03-23T01:38:57;99612.16;;;10.97;100.00
25560;BME280;13450;49.374;8.584;2024-03-23T01:41:24;99610.69;;;11.01;100.00
25560;BME280;13450;49.374;8.584;2024-03-23T01:43:49;99595.84;;;11.05;100.00
25560;BME280;13450;49.374;8.584;2024-03-23T01:46:15;99603.66;;;11.07;100.00
25560;BME280;13450;49.374;8.584;2024-03-23T01:48:40;99598.94;;;11.09;100.00
25560;BME280;13450;49.374;8.584;2024-03-23T01:51:08;99598.94;;;11.16;100.00
25560;BME280;13450;49.374;8.584;2024-03-23T01:53:33;99596.84;;;11.18;100.00
25560;BME280;13450;49.374;8.584;2024-03-23T01:55:58;99598.06;;;11.22;100.00
25560;BME280;13450;49.374;8.584;2024-03-23T01:58:24;99589.44;;;11.27;100.00
25560;BME280;13450;49.374;8.584;2024-03-23T02:00:49;99588.59;;;11.26;100.00
25560;BME280;13450;49.374;8.584;2024-03-23T02:03:25;99581.19;;;11.28;100.00
25560;BME280;13450;49.374;8.584;2024-03-23T02:05:51;99576.63;;;11.29;100.00
25560;BME280;13450;49.374;8.584;2024-03-23T02:08:18;99577.66;;;11.34;100.00
25560;BME280;13450;49.374;8.584;2024-03-23T02:10:45;99575.56;;;11.36;100.00
25560;BME280;13450;49.374;8.584;2024-03-23T02:13:14;99575.78;;;11.42;100.00
25560;BME280;13450;49.374;8.584;2024-03-23T02:15:39;99571.03;;;11.44;100.00
25560;BME280;13450;49.374;8.584;2024-03-23T02:18:06;99564.63;;;11.45;100.00
25560;BME280;13450;49.374;8.584;2024-03-23T02:20:32;99564.63;;;11.45;100.00
25560;BME280;13450;49.374;8.584;2024-03-23T02:23:00;99568.34;;;11.44;100.00
25560;BME280;13450;49.374;8.584;2024-03-23T02:25:27;99566.50;;;11.44;100.00
25560;BME280;13450;49.374;8.584;2024-03-23T02:27:52;99559.28;;;11.45;100.00
25560;BME280;13450;49.374;8.584;2024-03-23T02:30:19;99558.66;;;11.43;100.00
25560;BME280;13450;49.374;8.584;2024-03-23T02:32:45;99554.94;;;11.44;100.00
25560;BME280;13450;49.374;8.584;2024-03-23T02:35:10;99558.47;;;11.44;100.00
25560;BME280;13450;49.374;8.584;2024-03-23T02:37:35;99561.34;;;11.43;100.00
25560;BME280;13450;49.374;8.584;2024-03-23T02:40:01;99568.75;;;11.41;100.00
25560;BME280;13450;49.374;8.584;2024-03-23T02:42:27;99570.84;;;11.38;100.00
25560;BME280;13450;49.374;8.584;2024-03-23T02:44:52;99563.84;;;11.37;100.00
25560;BME280;13450;49.374;8.584;2024-03-23T02:47:17;99560.53;;;11.35;100.00
25560;BME280;13450;49.374;8.584;2024-03-23T02:49:42;99571.25;;;11.35;100.00
25560;BME280;13450;49.374;8.584;2024-03-23T02:52:08;99573.34;;;11.33;100.00
25560;BME280;13450;49.374;8.584;2024-03-23T02:54:33;99564.69;;;11.31;100.00
25560;BME280;13450;49.374;8.584;2024-03-23T02:57:01;99569.44;;;11.29;100.00
25560;BME280;13450;49.374;8.584;2024-03-23T02:59:26;99565.91;;;11.29;100.00
25560;BME280;13450;49.374;8.584;2024-03-23T03:01:51;99565.13;;;11.28;100.00
25560;BME280;13450;49.374;8.584;2024-03-23T03:04:19;99572.94;;;11.23;100.00
25560;BME280;13450;49.374;8.584;2024-03-23T03:06:48;99558.94;;;11.21;100.00
25560;BME280;13450;49.374;8.584;2024-03-23T03:09:13;99569.47;;;11.16;100.00
25560;BME280;13450;49.374;8.584;2024-03-23T03:11:38;99569.69;;;11.14;100.00
25560;BME280;13450;49.374;8.584;2024-03-23T03:14:04;99574.19;;;11.14;100.00
25560;BME280;13450;49.374;8.584;2024-03-23T03:16:32;99571.72;;;11.12;100.00
25560;BME280;13450;49.374;8.584;2024-03-23T03:18:57;99567.22;;;11.12;100.00
25560;BME280;13450;49.374;8.584;2024-03-23T03:21:25;99564.31;;;11.14;100.00
25560;BME280;13450;49.374;8.584;2024-03-23T03:23:50;99561.25;;;11.10;100.00
25560;BME280;13450;49.374;8.584;2024-03-23T03:26:16;99556.09;;;11.09;100.00
25560;BME280;13450;49.374;8.584;2024-03-23T03:28:42;99561.03;;;11.12;100.00
25560;BME280;13450;49.374;8.584;2024-03-23T03:31:08;99561.25;;;11.10;100.00
25560;BME280;13450;49.374;8.584;2024-03-23T03:33:33;99566.78;;;11.16;100.00
25560;BME280;13450;49.374;8.584;2024-03-23T03:35:59;99572.97;;;11.16;100.00
25560;BME280;13450;49.374;8.584;2024-03-23T03:38:26;99565.56;;;11.18;100.00
25560;BME280;13450;49.374;8.584;2024-03-23T03:40:52;99558.75;;;11.16;100.00
25560;BME280;13450;49.374;8.584;2024-03-23T03:43:18;99549.09;;;11.15;100.00
25560;BME280;13450;49.374;8.584;2024-03-23T03:45:51;99538.78;;;11.11;100.00
25560;BME280;13450;49.374;8.584;2024-03-23T03:48:16;99540.03;;;11.09;100.00
25560;BME280;13450;49.374;8.584;2024-03-23T03:50:42;99552.81;;;11.07;100.00
25560;BME280;13450;49.374;8.584;2024-03-23T03:53:07;99549.53;;;11.05;100.00
25560;BME280;13450;49.374;8.584;2024-03-23T03:55:32;99548.69;;;11.04;100.00
25560;BME280;13450;49.374;8.584;2024-03-23T03:57:57;99545.41;;;11.02;100.00
25560;BME280;13450;49.374;8.584;2024-03-23T04:00:23;99532.22;;;11.01;100.00
25560;BME280;13450;49.374;8.584;2024-03-23T04:02:48;99521.53;;;11.01;100.00
25560;BME280;13450;49.374;8.584;2024-03-23T04:05:13;99526.03;;;11.00;100.00
25560;BME280;13450;49.374;8.584;2024-03-23T04:07:39;99520.69;;;11.00;100.00
25560;BME280;13450;49.374;8.584;2024-03-23T04:10:04;99525.25;;;10.99;100.00
25560;BME280;13450;49.374;8.584;2024-03-23T04:12:32;99518.22;;;10.98;100.00
25560;BME280;13450;49.374;8.584;2024-03-23T04:14:58;99518.22;;;10.98;100.00
25560;BME280;13450;49.374;8.584;2024-03-23T04:17:27;99507.50;;;10.98;100.00
25560;BME280;13450;49.374;8.584;2024-03-23T04:19:57;99509.56;;;11.03;100.00
25560;BME280;13450;49.374;8.584;2024-03-23T04:22:23;99517.19;;;11.06;100.00
25560;BME280;13450;49.374;8.584;2024-03-23T04:24:55;99514.50;;;11.06;100.00
25560;BME280;13450;49.374;8.584;2024-03-23T04:27:20;99526.88;;;11.07;100.00
25560;BME280;13450;49.374;8.584;2024-03-23T04:29:52;99514.50;;;11.06;100.00
25560;BME280;13450;49.374;8.584;2024-03-23T04:32:20;99519.88;;;11.06;100.00
25560;BME280;13450;49.374;8.584;2024-03-23T04:34:45;99520.88;;;11.05;100.00
25560;BME280;13450;49.374;8.584;2024-03-23T04:37:11;99532.63;;;11.04;100.00
25560;BME280;13450;49.374;8.584;2024-03-23T04:39:37;99533.06;;;11.01;100.00
25560;BME280;13450;49.374;8.584;2024-03-23T04:42:03;99526.03;;;11.00;100.00
25560;BME280;13450;49.374;8.584;2024-03-23T04:44:29;99533.47;;;10.98;100.00
25560;BME280;13450;49.374;8.584;2024-03-23T04:46:54;99524.81;;;10.96;100.00
25560;BME280;13450;49.374;8.584;2024-03-23T04:49:19;99528.53;;;10.95;100.00
25560;BME280;13450;49.374;8.584;2024-03-23T04:51:45;99544.19;;;10.98;100.00
25560;BME280;13450;49.374;8.584;2024-03-23T04:54:14;99531.00;;;10.96;100.00
25560;BME280;13450;49.374;8.584;2024-03-23T04:56:42;99526.91;;;10.94;100.00
25560;BME280;13450;49.374;8.584;2024-03-23T04:59:09;99539.25;;;10.95;100.00
25560;BME280;13450;49.374;8.584;2024-03-23T05:01:35;99542.97;;;10.94;100.00
25560;BME280;13450;49.374;8.584;2024-03-23T05:04:03;99539.66;;;10.92;100.00
25560;BME280;13450;49.374;8.584;2024-03-23T05:06:31;99553.03;;;10.92;100.00
25560;BME280;13450;49.374;8.584;2024-03-23T05:09:01;99556.53;;;10.92;100.00
25560;BME280;13450;49.374;8.584;2024-03-23T05:11:36;99559.84;;;10.94;100.00
25560;BME280;13450;49.374;8.584;2024-03-23T05:14:02;99584.75;;;10.95;100.00
25560;BME280;13450;49.374;8.584;2024-03-23T05:16:28;99573.00;;;10.96;100.00
25560;BME280;13450;49.374;8.584;2024-03-23T05:18:53;99573.44;;;10.93;100.00
25560;BME280;13450;49.374;8.584;2024-03-23T05:21:18;99577.56;;;10.89;100.00
25560;BME280;13450;49.374;8.584;2024-03-23T05:23:44;99576.53;;;10.83;100.00
25560;BME280;13450;49.374;8.584;2024-03-23T05:26:09;99561.09;;;10.78;100.00
25560;BME280;13450;49.374;8.584;2024-03-23T05:28:35;99579.41;;;10.68;100.00
25560;BME280;13450;49.374;8.584;2024-03-23T05:31:00;99577.97;;;10.65;100.00
25560;BME280;13450;49.374;8.584;2024-03-23T05:33:26;99587.88;;;10.58;100.00
25560;BME280;13450;49.374;8.584;2024-03-23T05:35:58;99570.59;;;10.54;100.00
25560;BME280;13450;49.374;8.584;2024-03-23T05:38:26;99578.38;;;10.49;100.00
25560;BME280;13450;49.374;8.584;2024-03-23T05:40:58;99607.56;;;10.23;100.00
25560;BME280;13450;49.374;8.584;2024-03-23T05:43:24;99616.50;;;9.81;100.00
25560;BME280;13450;49.374;8.584;2024-03-23T05:46:00;99636.56;;;9.64;100.00
25560;BME280;13450;49.374;8.584;2024-03-23T05:48:26;99657.47;;;9.53;100.00
25560;BME280;13450;49.374;8.584;2024-03-23T05:50:52;99667.44;;;9.38;100.00
25560;BME280;13450;49.374;8.584;2024-03-23T05:53:18;99685.66;;;9.27;100.00
25560;BME280;13450;49.374;8.584;2024-03-23T05:55:46;99693.72;;;9.06;100.00
25560;BME280;13450;49.374;8.584;2024-03-23T05:58:14;99707.47;;;9.02;100.00
25560;BME280;13450;49.374;8.584;2024-03-23T06:00:40;99727.03;;;8.88;100.00
25560;BME280;13450;49.374;8.584;2024-03-23T06:03:06;99724.69;;;8.78;100.00
25560;BME280;13450;49.374;8.584;2024-03-23T06:05:33;99741.78;;;8.62;100.00
25560;BME280;13450;49.374;8.584;2024-03-23T06:07:59;99743.41;;;8.63;100.00
25560;BME280;13450;49.374;8.584;2024-03-23T06:10:24;99749.69;;;8.55;100.00
25560;BME280;13450;49.374;8.584;2024-03-23T06:12:49;99761.91;;;8.49;100.00
25560;BME280;13450;49.374;8.584;2024-03-23T06:15:17;99760.25;;;8.48;100.00
25560;BME280;13450;49.374;8.584;2024-03-23T06:17:43;99776.25;;;8.48;100.00
25560;BME280;13450;49.374;8.584;2024-03-23T06:20:08;99784.44;;;8.47;100.00
25560;BME280;13450;49.374;8.584;2024-03-23T06:22:35;99792.44;;;8.47;100.00
25560;BME280;13450;49.374;8.584;2024-03-23T06:25:00;99793.00;;;8.42;100.00
25560;BME280;13450;49.374;8.584;2024-03-23T06:27:26;99789.03;;;8.38;100.00
25560;BME280;13450;49.374;8.584;2024-03-23T06:29:51;99791.16;;;8.43;100.00
25560;BME280;13450;49.374;8.584;2024-03-23T06:32:17;99795.91;;;8.47;100.00
25560;BME280;13450;49.374;8.584;2024-03-23T06:34:43;99787.56;;;8.50;100.00
25560;BME280;13450;49.374;8.584;2024-03-23T06:37:10;99787.22;;;8.54;100.00
25560;BME280;13450;49.374;8.584;2024-03-23T06:39:40;99796.28;;;8.59;100.00
25560;BME280;13450;49.374;8.584;2024-03-23T06:42:06;99819.66;;;8.57;100.00
25560;BME280;13450;49.374;8.584;2024-03-23T06:44:33;99824.16;;;8.57;100.00
25560;BME280;13450;49.374;8.584;2024-03-23T06:46:58;99835.22;;;8.54;100.00
25560;BME280;13450;49.374;8.584;2024-03-23T06:49:24;99835.56;;;8.50;100.00
25560;BME280;13450;49.374;8.584;2024-03-23T06:51:49;99842.53;;;8.51;100.00
25560;BME280;13450;49.374;8.584;2024-03-23T06:54:19;99845.78;;;8.47;100.00
25560;BME280;13450;49.374;8.584;2024-03-23T06:56:45;99856.72;;;8.37;100.00
25560;BME280;13450;49.374;8.584;2024-03-23T06:59:10;99870.13;;;8.29;100.00
25560;BME280;13450;49.374;8.584;2024-03-23T07:01:35;99858.72;;;8.05;100.00
25560;BME280;13450;49.374;8.584;2024-03-23T07:04:01;99845.31;;;8.13;100.00
25560;BME280;13450;49.374;8.584;2024-03-23T07:06:26;99863.13;;;7.97;100.00
25560;BME280;13450;49.374;8.584;2024-03-23T07:08:54;99871.88;;;8.06;100.00
25560;BME280;13450;49.374;8.584;2024-03-23T07:11:23;99879.50;;;8.24;100.00
25560;BME280;13450;49.374;8.584;2024-03-23T07:13:52;99888.72;;;8.37;100.00
25560;BME280;13450;49.374;8.584;2024-03-23T07:16:19;99902.41;;;8.49;100.00
25560;BME280;13450;49.374;8.584;2024-03-23T07:18:45;99909.94;;;8.45;100.00
25560;BME280;13450;49.374;8.584;2024-03-23T07:21:11;99912.44;;;8.32;100.00
25560;BME280;13450;49.374;8.584;2024-03-23T07:23:36;99914.81;;;8.27;100.00
25560;BME280;13450;49.374;8.584;2024-03-23T07:26:03;99911.75;;;8.30;100.00
25560;BME280;13450;49.374;8.584;2024-03-23T07:28:33;99924.91;;;8.31;100.00
25560;BME280;13450;49.374;8.584;2024-03-23T07:31:02;99927.13;;;8.28;100.00
25560;BME280;13450;49.374;8.584;2024-03-23T07:33:28;99929.22;;;8.32;100.00
25560;BME280;13450;49.374;8.584;2024-03-23T07:35:54;99926.03;;;8.37;100.00
25560;BME280;13450;49.374;8.584;2024-03-23T07:38:19;99948.28;;;8.44;100.00
25560;BME280;13450;49.374;8.584;2024-03-23T07:40:44;99962.38;;;8.53;100.00
25560;BME280;13450;49.374;8.584;2024-03-23T07:43:10;99961.16;;;8.41;100.00
25560;BME280;13450;49.374;8.584;2024-03-23T07:45:35;99959.56;;;8.31;100.00
25560;BME280;13450;49.374;8.584;2024-03-23T07:48:03;99971.34;;;8.37;100.00
25560;BME280;13450;49.374;8.584;2024-03-23T07:50:28;99979.34;;;8.37;100.00
25560;BME280;13450;49.374;8.584;2024-03-23T07:52:53;99998.16;;;8.59;100.00
25560;BME280;13450;49.374;8.584;2024-03-23T07:55:19;99998.63;;;8.62;100.00
25560;BME280;13450;49.374;8.584;2024-03-23T07:57:44;99999.38;;;8.71;100.00
25560;BME280;13450;49.374;8.584;2024-03-23T08:00:10;100003.88;;;8.86;100.00
25560;BME280;13450;49.374;8.584;2024-03-23T08:02:40;100012.53;;;8.58;100.00
25560;BME280;13450;49.374;8.584;2024-03-23T08:05:08;100028.88;;;8.55;100.00
25560;BME280;13450;49.374;8.584;2024-03-23T08:07:36;100027.88;;;8.56;100.00
25560;BME280;13450;49.374;8.584;2024-03-23T08:10:01;100029.91;;;8.54;100.00
25560;BME280;13450;49.374;8.584;2024-03-23T08:12:31;100033.41;;;8.99;100.00
25560;BME280;13450;49.374;8.584;2024-03-23T08:14:58;100027.75;;;9.24;100.00
25560;BME280;13450;49.374;8.584;2024-03-23T08:17:24;100043.59;;;9.41;100.00
25560;BME280;13450;49.374;8.584;2024-03-23T08:19:51;100043.91;;;9.16;100.00
25560;BME280;13450;49.374;8.584;2024-03-23T08:22:19;100050.50;;;9.20;100.00
25560;BME280;13450;49.374;8.584;2024-03-23T08:24:44;100048.41;;;9.31;100.00
25560;BME280;13450;49.374;8.584;2024-03-23T08:27:12;100058.31;;;9.37;100.00
25560;BME280;13450;49.374;8.584;2024-03-23T08:29:37;100057.44;;;9.29;100.00
25560;BME280;13450;49.374;8.584;2024-03-23T08:32:02;100064.78;;;9.27;100.00
25560;BME280;13450;49.374;8.584;2024-03-23T08:34:27;100061.44;;;9.40;100.00
25560;BME280;13450;49.374;8.584;2024-03-23T08:36:53;100066.84;;;9.62;100.00
25560;BME280;13450;49.374;8.584;2024-03-23T08:39:18;100075.22;;;9.96;100.00
25560;BME280;13450;49.374;8.584;2024-03-23T08:41:44;100064.78;;;10.01;100.00
25560;BME280;13450;49.374;8.584;2024-03-23T08:44:11;100082.22;;;10.19;100.00
25560;BME280;13450;49.374;8.584;2024-03-23T08:46:36;100072.19;;;9.99;100.00
25560;BME280;13450;49.374;8.584;2024-03-23T08:49:02;100072.25;;;10.06;100.00
25560;BME280;13450;49.374;8.584;2024-03-23T08:51:27;100078.81;;;10.25;100.00
25560;BME280;13450;49.374;8.584;2024-03-23T08:53:52;100084.34;;;10.24;100.00
25560;BME280;13450;49.374;8.584;2024-03-23T08:56:17;100090.63;;;9.94;100.00
25560;BME280;13450;49.374;8.584;2024-03-23T08:58:43;100087.63;;;9.82;100.00
25560;BME280;13450;49.374;8.584;2024-03-23T09:01:10;100091.50;;;10.01;100.00
25560;BME280;13450;49.374;8.584;2024-03-23T09:03:36;100086.75;;;10.18;100.00
25560;BME280;13450;49.374;8.584;2024-03-23T09:06:08;100095.66;;;10.26;100.00
25560;BME280;13450;49.374;8.584;2024-03-23T09:08:34;100105.84;;;10.37;98.52
25560;BME280;13450;49.374;8.584;2024-03-23T09:11:04;100094.84;;;10.25;93.07
25560;BME280;13450;49.374;8.584;2024-03-23T09:13:32;100107.31;;;10.40;94.61
25560;BME280;13450;49.374;8.584;2024-03-23T09:15:57;100107.47;;;10.53;91.07
25560;BME280;13450;49.374;8.584;2024-03-23T09:18:23;100109.00;;;10.91;89.69
25560;BME280;13450;49.374;8.584;2024-03-23T09:20:49;100115.41;;;10.97;88.25
25560;BME280;13450;49.374;8.584;2024-03-23T09:23:14;100115.00;;;11.00;87.91
25560;BME280;13450;49.374;8.584;2024-03-23T09:25:40;100118.41;;;11.16;88.52
25560;BME280;13450;49.374;8.584;2024-03-23T09:28:09;100110.22;;;11.24;89.06
25560;BME280;13450;49.374;8.584;2024-03-23T09:30:35;100095.28;;;11.50;85.59
25560;BME280;13450;49.374;8.584;2024-03-23T09:33:01;100092.19;;;11.46;83.51
25560;BME280;13450;49.374;8.584;2024-03-23T09:35:26;100092.03;;;11.55;84.79
25560;BME280;13450;49.374;8.584;2024-03-23T09:37:51;100105.19;;;11.07;87.46
25560;BME280;13450;49.374;8.584;2024-03-23T09:40:17;100100.06;;;10.55;89.04
25560;BME280;13450;49.374;8.584;2024-03-23T09:42:42;100105.44;;;10.33;84.95
25560;BME280;13450;49.374;8.584;2024-03-23T09:45:27;100097.41;;;10.12;86.90
25560;BME280;13450;49.374;8.584;2024-03-23T09:47:55;100104.47;;;9.82;81.90
25560;BME280;13450;49.374;8.584;2024-03-23T09:50:21;100107.75;;;9.63;80.19
25560;BME280;13450;49.374;8.584;2024-03-23T09:52:47;100108.19;;;9.66;81.46
25560;BME280;13450;49.374;8.584;2024-03-23T09:55:12;100102.28;;;9.86;79.97
25560;BME280;13450;49.374;8.584;2024-03-23T09:57:39;100108.53;;;9.78;76.23
25560;BME280;13450;49.374;8.584;2024-03-23T10:00:05;100103.50;;;9.68;77.95
25560;BME280;13450;49.374;8.584;2024-03-23T10:02:30;100098.91;;;9.62;76.26
25560;BME280;13450;49.374;8.584;2024-03-23T10:04:55;100109.66;;;9.69;80.25
25560;BME280;13450;49.374;8.584;2024-03-23T10:07:22;100107.66;;;9.71;78.32
25560;BME280;13450;49.374;8.584;2024-03-23T10:09:48;100101.53;;;9.77;76.36
25560;BME280;13450;49.374;8.584;2024-03-23T10:12:17;100099.44;;;9.73;76.49
25560;BME280;13450;49.374;8.584;2024-03-23T10:14:43;100099.53;;;9.79;78.04
25560;BME280;13450;49.374;8.584;2024-03-23T10:17:16;100095.22;;;10.00;76.45
25560;BME280;13450;49.374;8.584;2024-03-23T10:22:14;100098.66;;;10.16;73.14
25560;BME280;13450;49.374;8.584;2024-03-23T10:24:40;100086.69;;;10.12;71.18
25560;BME280;13450;49.374;8.584;2024-03-23T10:27:06;100087.63;;;10.26;73.80
25560;BME280;13450;49.374;8.584;2024-03-23T10:29:31;100092.28;;;10.39;69.30
25560;BME280;13450;49.374;8.584;2024-03-23T10:32:10;100101.75;;;10.56;66.34
25560;BME280;13450;49.374;8.584;2024-03-23T10:34:36;100087.19;;;10.66;65.25
25560;BME280;13450;49.374;8.584;2024-03-23T10:37:03;100101.56;;;10.58;63.99
25560;BME280;13450;49.374;8.584;2024-03-23T10:39:39;100100.81;;;10.71;63.49
25560;BME280;13450;49.374;8.584;2024-03-23T10:42:06;100095.47;;;10.71;62.59
25560;BME280;13450;49.374;8.584;2024-03-23T10:44:32;100092.75;;;10.93;62.64
25560;BME280;13450;49.374;8.584;2024-03-23T10:46:58;100087.53;;;11.20;61.55
25560;BME280;13450;49.374;8.584;2024-03-23T10:49:32;100086.41;;;11.43;58.34
25560;BME280;13450;49.374;8.584;2024-03-23T10:52:02;100078.41;;;12.19;55.19
25560;BME280;13450;49.374;8.584;2024-03-23T10:54:27;100071.81;;;12.41;51.79
25560;BME280;13450;49.374;8.584;2024-03-23T10:59:29;100072.16;;;13.06;47.45
25560;BME280;13450;49.374;8.584;2024-03-23T11:01:58;100074.56;;;13.28;46.18
25560;BME280;13450;49.374;8.584;2024-03-23T11:04:32;100070.75;;;12.83;49.87
25560;BME280;13450;49.374;8.584;2024-03-23T11:06:58;100080.88;;;12.67;48.09
25560;BME280;13450;49.374;8.584;2024-03-23T11:14:50;100090.38;;;12.23;45.49
25560;BME280;13450;49.374;8.584;2024-03-23T11:17:23;100094.53;;;13.98;42.68
25560;BME280;13450;49.374;8.584;2024-03-23T11:19:59;100091.25;;;13.50;44.85
25560;BME280;13450;49.374;8.584;2024-03-23T11:25:02;100082.59;;;13.87;38.84
25560;BME280;13450;49.374;8.584;2024-03-23T11:27:28;100075.34;;;14.71;38.18
25560;BME280;13450;49.374;8.584;2024-03-23T11:29:53;100074.00;;;14.87;36.25
25560;BME280;13450;49.374;8.584;2024-03-23T11:32:23;100058.88;;;14.60;37.18
25560;BME280;13450;49.374;8.584;2024-03-23T11:34:49;100066.38;;;14.01;38.94
25560;BME280;13450;49.374;8.584;2024-03-23T11:37:14;100068.81;;;13.17;39.18
25560;BME280;13450;49.374;8.584;2024-03-23T11:39:39;100070.97;;;12.34;40.30
25560;BME280;13450;49.374;8.584;2024-03-23T11:42:07;100059.00;;;12.16;41.55
25560;BME280;13450;49.374;8.584;2024-03-23T11:44:32;100055.28;;;12.31;42.56
25560;BME280;13450;49.374;8.584;2024-03-23T11:47:08;100046.00;;;12.13;42.93
25560;BME280;13450;49.374;8.584;2024-03-23T11:49:35;100038.38;;;12.31;44.04
25560;BME280;13450;49.374;8.584;2024-03-23T11:52:05;100050.13;;;12.09;43.86
25560;BME280;13450;49.374;8.584;2024-03-23T11:54:34;100051.72;;;11.97;46.03
25560;BME280;13450;49.374;8.584;2024-03-23T11:57:05;100058.81;;;11.49;46.27
25560;BME280;13450;49.374;8.584;2024-03-23T11:59:41;100073.13;;;11.21;46.19
25560;BME280;13450;49.374;8.584;2024-03-23T12:02:11;100087.53;;;10.84;53.80
25560;BME280;13450;49.374;8.584;2024-03-23T12:04:37;100098.34;;;10.26;65.56
25560;BME280;13450;49.374;8.584;2024-03-23T12:07:19;100099.25;;;9.74;92.31
25560;BME280;13450;49.374;8.584;2024-03-23T12:10:01;100099.88;;;9.09;100.00
25560;BME280;13450;49.374;8.584;2024-03-23T12:12:31;100099.91;;;8.71;100.00
25560;BME280;13450;49.374;8.584;2024-03-23T12:15:06;100105.69;;;8.36;100.00
25560;BME280;13450;49.374;8.584;2024-03-23T12:17:33;100110.28;;;8.19;100.00
25560;BME280;13450;49.374;8.584;2024-03-23T12:20:00;100106.38;;;8.06;100.00
25560;BME280;13450;49.374;8.584;2024-03-23T12:22:25;100107.31;;;7.90;100.00
25560;BME280;13450;49.374;8.584;2024-03-23T12:24:51;100087.28;;;7.71;100.00
25560;BME280;13450;49.374;8.584;2024-03-23T12:27:16;100077.91;;;7.43;100.00
25560;BME280;13450;49.374;8.584;2024-03-23T12:29:42;100078.91;;;7.42;100.00
25560;BME280;13450;49.374;8.584;2024-03-23T12:32:08;100112.25;;;7.30;100.00
25560;BME280;13450;49.374;8.584;2024-03-23T12:34:34;100148.91;;;7.03;100.00
25560;BME280;13450;49.374;8.584;2024-03-23T12:37:00;100115.00;;;6.97;100.00
25560;BME280;13450;49.374;8.584;2024-03-23T12:39:25;100103.31;;;7.14;100.00
25560;BME280;13450;49.374;8.584;2024-03-23T12:41:51;100098.88;;;10.58;100.00
25560;BME280;13450;49.374;8.584;2024-03-23T12:44:18;100085.41;;;11.50;100.00
25560;BME280;13450;49.374;8.584;2024-03-23T12:46:44;100085.63;;;11.56;100.00
25560;BME280;13450;49.374;8.584;2024-03-23T12:49:10;100083.44;;;10.38;97.59
25560;BME280;13450;49.374;8.584;2024-03-23T12:51:35;100086.44;;;9.85;100.00
25560;BME280;13450;49.374;8.584;2024-03-23T12:54:00;100086.31;;;9.11;100.00
25560;BME280;13450;49.374;8.584;2024-03-23T12:56:26;100076.75;;;9.16;100.00
25560;BME280;13450;49.374;8.584;2024-03-23T12:58:53;100077.97;;;9.14;100.00
25560;BME280;13450;49.374;8.584;2024-03-23T13:01:22;100081.28;;;9.16;100.00
25560;BME280;13450;49.374;8.584;2024-03-23T13:03:48;100092.31;;;8.98;100.00
25560;BME280;13450;49.374;8.584;2024-03-23T13:06:17;100136.78;;;8.44;100.00
25560;BME280;13450;49.374;8.584;2024-03-23T13:08:46;100153.72;;;7.16;100.00
25560;BME280;13450;49.374;8.584;2024-03-23T13:11:13;100192.44;;;6.44;100.00
25560;BME280;13450;49.374;8.584;2024-03-23T13:13:39;100173.78;;;5.67;100.00
25560;BME280;13450;49.374;8.584;2024-03-23T13:16:06;100176.56;;;5.04;100.00
25560;BME280;13450;49.374;8.584;2024-03-23T13:18:32;100146.31;;;5.15;100.00
25560;BME280;13450;49.374;8.584;2024-03-23T13:20:58;100144.06;;;8.73;100.00
25560;BME280;13450;49.374;8.584;2024-03-23T13:23:24;100112.75;;;10.46;100.00
25560;BME280;13450;49.374;8.584;2024-03-23T13:25:53;100112.41;;;10.34;100.00
25560;BME280;13450;49.374;8.584;2024-03-23T13:28:22;100123.09;;;9.76;100.00
25560;BME280;13450;49.374;8.584;2024-03-23T13:30:56;100117.53;;;8.57;100.00
25560;BME280;13450;49.374;8.584;2024-03-23T13:33:23;100122.09;;;8.48;100.00
25560;BME280;13450;49.374;8.584;2024-03-23T13:35:54;100118.47;;;8.17;100.00
25560;BME280;13450;49.374;8.584;2024-03-23T13:38:23;100118.84;;;8.37;100.00
25560;BME280;13450;49.374;8.584;2024-03-23T13:40:59;100115.50;;;8.12;100.00
25560;BME280;13450;49.374;8.584;2024-03-23T13:43:26;100114.31;;;8.38;100.00
25560;BME280;13450;49.374;8.584;2024-03-23T13:45:58;100108.22;;;8.91;100.00
25560;BME280;13450;49.374;8.584;2024-03-23T13:48:24;100106.31;;;10.91;100.00
25560;BME280;13450;49.374;8.584;2024-03-23T13:50:57;100103.22;;;14.58;100.00
25560;BME280;13450;49.374;8.584;2024-03-23T13:53:22;100102.66;;;16.72;73.76
25560;BME280;13450;49.374;8.584;2024-03-23T13:55:50;100092.78;;;18.59;59.46
25560;BME280;13450;49.374;8.584;2024-03-23T13:58:16;100106.25;;;17.49;54.68